sensor_id;sensor_type;location;lat;lon;timestamp;temperature;humidity
12911;DHT22;6523;49.758;6.120;2023-10-19T00:01:09;14.90;99.90
12911;DHT22;6523;49.758;6.120;2023-10-19T00:03:35;15.00;99.90
12911;DHT22;6523;49.758;6.120;2023-10-19T00:06:01;15.10;99.90
12911;DHT22;6523;49.758;6.120;2023-10-19T00:08:27;15.10;99.90
12911;DHT22;6523;49.758;6.120;2023-10-19T00:11:02;15.00;99.90
12911;DHT22;6523;49.758;6.120;2023-10-19T00:13:34;15.00;99.90
12911;DHT22;6523;49.758;6.120;2023-10-19T00:16:07;15.00;99.90
12911;DHT22;6523;49.758;6.120;2023-10-19T00:18:45;15.20;99.90
12911;DHT22;6523;49.758;6.120;2023-10-19T00:21:18;15.30;99.90
12911;DHT22;6523;49.758;6.120;2023-10-19T00:23:52;15.30;99.90
12911;DHT22;6523;49.758;6.120;2023-10-19T00:26:22;15.30;99.90
12911;DHT22;6523;49.758;6.120;2023-10-19T00:28:51;15.30;99.90
12911;DHT22;6523;49.758;6.120;2023-10-19T00:31:27;15.20;99.90
12911;DHT22;6523;49.758;6.120;2023-10-19T00:33:59;15.20;99.90
12911;DHT22;6523;49.758;6.120;2023-10-19T00:36:26;15.20;99.90
12911;DHT22;6523;49.758;6.120;2023-10-19T00:38:52;15.20;99.90
12911;DHT22;6523;49.758;6.120;2023-10-19T00:41:21;15.10;99.90
12911;DHT22;6523;49.758;6.120;2023-10-19T00:43:49;15.10;99.90
12911;DHT22;6523;49.758;6.120;2023-10-19T00:46:16;15.20;99.90
12911;DHT22;6523;49.758;6.120;2023-10-19T00:48:48;15.20;99.90
12911;DHT22;6523;49.758;6.120;2023-10-19T00:51:19;15.20;99.90
12911;DHT22;6523;49.758;6.120;2023-10-19T00:54:00;15.30;99.90
12911;DHT22;6523;49.758;6.120;2023-10-19T00:56:33;15.20;99.90
12911;DHT22;6523;49.758;6.120;2023-10-19T00:58:59;15.10;99.90
12911;DHT22;6523;49.758;6.120;2023-10-19T01:01:29;15.00;99.90
12911;DHT22;6523;49.758;6.120;2023-10-19T01:03:55;14.90;99.90
12911;DHT22;6523;49.758;6.120;2023-10-19T01:06:24;15.00;99.90
12911;DHT22;6523;49.758;6.120;2023-10-19T01:08:51;14.80;99.90
12911;DHT22;6523;49.758;6.120;2023-10-19T01:11:17;14.80;99.90
12911;DHT22;6523;49.758;6.120;2023-10-19T01:13:46;15.10;99.90
12911;DHT22;6523;49.758;6.120;2023-10-19T01:16:14;15.10;99.90
12911;DHT22;6523;49.758;6.120;2023-10-19T01:18:51;15.20;99.90
12911;DHT22;6523;49.758;6.120;2023-10-19T01:21:23;15.20;99.90
12911;DHT22;6523;49.758;6.120;2023-10-19T01:24:06;15.10;99.90
12911;DHT22;6523;49.758;6.120;2023-10-19T01:26:32;15.20;99.90
12911;DHT22;6523;49.758;6.120;2023-10-19T01:29:02;15.30;99.90
12911;DHT22;6523;49.758;6.120;2023-10-19T01:31:38;15.30;99.90
12911;DHT22;6523;49.758;6.120;2023-10-19T01:34:16;15.30;99.90
12911;DHT22;6523;49.758;6.120;2023-10-19T01:36:45;15.30;99.90
12911;DHT22;6523;49.758;6.120;2023-10-19T01:39:15;15.30;99.90
12911;DHT22;6523;49.758;6.120;2023-10-19T01:41:41;15.30;99.90
12911;DHT22;6523;49.758;6.120;2023-10-19T01:44:07;15.30;99.90
12911;DHT22;6523;49.758;6.120;2023-10-19T01:46:36;15.30;99.90
12911;DHT22;6523;49.758;6.120;2023-10-19T01:49:03;15.20;99.90
12911;DHT22;6523;49.758;6.120;2023-10-19T01:51:33;15.30;99.90
12911;DHT22;6523;49.758;6.120;2023-10-19T01:54:03;15.30;99.90
12911;DHT22;6523;49.758;6.120;2023-10-19T01:56:30;15.20;99.90
12911;DHT22;6523;49.758;6.120;2023-10-19T01:58:56;15.20;99.90
12911;DHT22;6523;49.758;6.120;2023-10-19T02:01:23;15.20;99.90
12911;DHT22;6523;49.758;6.120;2023-10-19T02:03:52;15.20;99.90
12911;DHT22;6523;49.758;6.120;2023-10-19T02:06:24;15.20;99.90
12911;DHT22;6523;49.758;6.120;2023-10-19T02:09:00;15.30;99.90
12911;DHT22;6523;49.758;6.120;2023-10-19T02:11:27;15.30;99.90
12911;DHT22;6523;49.758;6.120;2023-10-19T02:13:55;15.20;99.90
12911;DHT22;6523;49.758;6.120;2023-10-19T02:16:21;15.20;99.90
12911;DHT22;6523;49.758;6.120;2023-10-19T02:18:49;15.30;99.90
12911;DHT22;6523;49.758;6.120;2023-10-19T02:21:16;15.30;99.90
12911;DHT22;6523;49.758;6.120;2023-10-19T02:23:50;15.20;99.90
12911;DHT22;6523;49.758;6.120;2023-10-19T02:26:22;15.20;99.90
12911;DHT22;6523;49.758;6.120;2023-10-19T02:28:56;15.20;99.90
12911;DHT22;6523;49.758;6.120;2023-10-19T02:31:23;15.30;99.90
12911;DHT22;6523;49.758;6.120;2023-10-19T02:33:54;15.30;99.90
12911;DHT22;6523;49.758;6.120;2023-10-19T02:36:26;15.30;99.90
12911;DHT22;6523;49.758;6.120;2023-10-19T02:39:00;15.40;99.90
12911;DHT22;6523;49.758;6.120;2023-10-19T02:41:33;15.30;99.90
12911;DHT22;6523;49.758;6.120;2023-10-19T02:44:00;15.30;99.90
12911;DHT22;6523;49.758;6.120;2023-10-19T02:46:38;15.30;99.90
12911;DHT22;6523;49.758;6.120;2023-10-19T02:49:05;15.30;99.90
12911;DHT22;6523;49.758;6.120;2023-10-19T02:51:37;15.30;99.90
12911;DHT22;6523;49.758;6.120;2023-10-19T02:54:03;15.30;99.90
12911;DHT22;6523;49.758;6.120;2023-10-19T02:56:29;15.30;99.90
12911;DHT22;6523;49.758;6.120;2023-10-19T02:59:01;15.30;99.90
12911;DHT22;6523;49.758;6.120;2023-10-19T03:01:29;15.30;99.90
12911;DHT22;6523;49.758;6.120;2023-10-19T03:03:58;15.40;99.90
12911;DHT22;6523;49.758;6.120;2023-10-19T03:06:28;15.40;99.90
12911;DHT22;6523;49.758;6.120;2023-10-19T03:08:58;15.30;99.90
12911;DHT22;6523;49.758;6.120;2023-10-19T03:11:27;15.30;99.90
12911;DHT22;6523;49.758;6.120;2023-10-19T03:13:53;15.30;99.90
12911;DHT22;6523;49.758;6.120;2023-10-19T03:16:19;15.30;99.90
12911;DHT22;6523;49.758;6.120;2023-10-19T03:18:46;15.30;99.90
12911;DHT22;6523;49.758;6.120;2023-10-19T03:21:12;15.30;99.90
12911;DHT22;6523;49.758;6.120;2023-10-19T03:23:37;15.30;99.90
12911;DHT22;6523;49.758;6.120;2023-10-19T03:26:04;15.30;99.90
12911;DHT22;6523;49.758;6.120;2023-10-19T03:28:30;15.30;99.90
12911;DHT22;6523;49.758;6.120;2023-10-19T03:31:00;15.40;99.90
12911;DHT22;6523;49.758;6.120;2023-10-19T03:33:26;15.40;99.90
12911;DHT22;6523;49.758;6.120;2023-10-19T03:35:53;15.40;99.90
12911;DHT22;6523;49.758;6.120;2023-10-19T03:38:20;15.40;99.90
12911;DHT22;6523;49.758;6.120;2023-10-19T03:40:48;15.40;99.90
12911;DHT22;6523;49.758;6.120;2023-10-19T03:43:20;15.30;99.90
12911;DHT22;6523;49.758;6.120;2023-10-19T03:45:49;15.30;99.90
12911;DHT22;6523;49.758;6.120;2023-10-19T03:48:19;15.30;99.90
12911;DHT22;6523;49.758;6.120;2023-10-19T03:50:50;15.20;99.90
12911;DHT22;6523;49.758;6.120;2023-10-19T03:53:17;15.20;99.90
12911;DHT22;6523;49.758;6.120;2023-10-19T03:55:43;15.10;99.90
12911;DHT22;6523;49.758;6.120;2023-10-19T03:58:09;15.20;99.90
12911;DHT22;6523;49.758;6.120;2023-10-19T04:00:37;15.10;99.90
12911;DHT22;6523;49.758;6.120;2023-10-19T04:03:03;15.10;99.90
12911;DHT22;6523;49.758;6.120;2023-10-19T04:05:28;15.10;99.90
12911;DHT22;6523;49.758;6.120;2023-10-19T04:07:54;15.10;99.90
12911;DHT22;6523;49.758;6.120;2023-10-19T04:10:30;15.10;99.90
12911;DHT22;6523;49.758;6.120;2023-10-19T04:13:04;15.20;99.90
12911;DHT22;6523;49.758;6.120;2023-10-19T04:15:30;15.10;99.90
12911;DHT22;6523;49.758;6.120;2023-10-19T04:17:59;15.00;99.90
12911;DHT22;6523;49.758;6.120;2023-10-19T04:20:25;15.10;99.90
12911;DHT22;6523;49.758;6.120;2023-10-19T04:22:51;15.10;99.90
12911;DHT22;6523;49.758;6.120;2023-10-19T04:25:18;15.10;99.90
12911;DHT22;6523;49.758;6.120;2023-10-19T04:27:44;15.10;99.90
12911;DHT22;6523;49.758;6.120;2023-10-19T04:30:12;15.20;99.90
12911;DHT22;6523;49.758;6.120;2023-10-19T04:32:48;15.20;99.90
12911;DHT22;6523;49.758;6.120;2023-10-19T04:35:18;15.10;99.90
12911;DHT22;6523;49.758;6.120;2023-10-19T04:37:51;15.10;99.90
12911;DHT22;6523;49.758;6.120;2023-10-19T04:40:21;15.00;99.90
12911;DHT22;6523;49.758;6.120;2023-10-19T04:42:47;15.10;99.90
12911;DHT22;6523;49.758;6.120;2023-10-19T04:45:13;15.20;99.90
12911;DHT22;6523;49.758;6.120;2023-10-19T04:47:39;15.20;99.90
12911;DHT22;6523;49.758;6.120;2023-10-19T04:50:06;15.10;99.90
12911;DHT22;6523;49.758;6.120;2023-10-19T04:52:32;15.10;99.90
12911;DHT22;6523;49.758;6.120;2023-10-19T04:54:59;15.10;99.90
12911;DHT22;6523;49.758;6.120;2023-10-19T04:57:25;15.10;99.90
12911;DHT22;6523;49.758;6.120;2023-10-19T04:59:53;15.10;99.90
12911;DHT22;6523;49.758;6.120;2023-10-19T05:02:19;15.10;99.90
12911;DHT22;6523;49.758;6.120;2023-10-19T05:04:45;15.10;99.90
12911;DHT22;6523;49.758;6.120;2023-10-19T05:07:11;15.10;99.90
12911;DHT22;6523;49.758;6.120;2023-10-19T05:09:45;15.10;99.90
12911;DHT22;6523;49.758;6.120;2023-10-19T05:12:12;15.10;99.90
12911;DHT22;6523;49.758;6.120;2023-10-19T05:14:38;15.10;99.90
12911;DHT22;6523;49.758;6.120;2023-10-19T05:17:05;15.10;99.90
12911;DHT22;6523;49.758;6.120;2023-10-19T05:19:34;15.10;99.90
12911;DHT22;6523;49.758;6.120;2023-10-19T05:22:00;15.00;99.90
12911;DHT22;6523;49.758;6.120;2023-10-19T05:24:26;15.00;99.90
12911;DHT22;6523;49.758;6.120;2023-10-19T05:26:56;15.00;99.90
12911;DHT22;6523;49.758;6.120;2023-10-19T05:29:22;15.00;99.90
12911;DHT22;6523;49.758;6.120;2023-10-19T05:31:50;15.10;99.90
12911;DHT22;6523;49.758;6.120;2023-10-19T05:34:22;15.10;99.90
12911;DHT22;6523;49.758;6.120;2023-10-19T05:36:48;15.00;99.90
12911;DHT22;6523;49.758;6.120;2023-10-19T05:39:17;15.10;99.90
12911;DHT22;6523;49.758;6.120;2023-10-19T05:41:42;15.00;99.90
12911;DHT22;6523;49.758;6.120;2023-10-19T05:44:08;15.00;99.90
12911;DHT22;6523;49.758;6.120;2023-10-19T05:46:34;14.90;99.90
12911;DHT22;6523;49.758;6.120;2023-10-19T05:48:59;14.90;99.90
12911;DHT22;6523;49.758;6.120;2023-10-19T05:51:29;14.90;99.90
12911;DHT22;6523;49.758;6.120;2023-10-19T05:53:54;15.00;99.90
12911;DHT22;6523;49.758;6.120;2023-10-19T05:56:29;15.00;99.90
12911;DHT22;6523;49.758;6.120;2023-10-19T05:58:56;15.00;99.90
12911;DHT22;6523;49.758;6.120;2023-10-19T06:01:22;15.00;99.90
12911;DHT22;6523;49.758;6.120;2023-10-19T06:03:48;14.90;99.90
12911;DHT22;6523;49.758;6.120;2023-10-19T06:06:14;14.90;99.90
12911;DHT22;6523;49.758;6.120;2023-10-19T06:08:40;14.90;99.90
12911;DHT22;6523;49.758;6.120;2023-10-19T06:11:06;15.00;99.90
12911;DHT22;6523;49.758;6.120;2023-10-19T06:13:32;15.00;99.90
12911;DHT22;6523;49.758;6.120;2023-10-19T06:15:57;15.00;99.90
12911;DHT22;6523;49.758;6.120;2023-10-19T06:18:23;15.00;99.90
12911;DHT22;6523;49.758;6.120;2023-10-19T06:20:48;14.90;99.90
12911;DHT22;6523;49.758;6.120;2023-10-19T06:23:16;14.90;99.90
12911;DHT22;6523;49.758;6.120;2023-10-19T06:25:43;14.90;99.90
12911;DHT22;6523;49.758;6.120;2023-10-19T06:28:09;14.90;99.90
12911;DHT22;6523;49.758;6.120;2023-10-19T06:30:37;15.00;99.90
12911;DHT22;6523;49.758;6.120;2023-10-19T06:33:03;15.00;99.90
12911;DHT22;6523;49.758;6.120;2023-10-19T06:35:30;15.10;99.90
12911;DHT22;6523;49.758;6.120;2023-10-19T06:38:03;15.00;99.90
12911;DHT22;6523;49.758;6.120;2023-10-19T06:40:35;15.10;99.90
12911;DHT22;6523;49.758;6.120;2023-10-19T06:43:04;15.00;99.90
12911;DHT22;6523;49.758;6.120;2023-10-19T06:45:31;15.10;99.90
12911;DHT22;6523;49.758;6.120;2023-10-19T06:47:57;15.10;99.90
12911;DHT22;6523;49.758;6.120;2023-10-19T06:50:24;15.10;99.90
12911;DHT22;6523;49.758;6.120;2023-10-19T06:52:51;15.20;99.90
12911;DHT22;6523;49.758;6.120;2023-10-19T06:55:18;15.20;99.90
12911;DHT22;6523;49.758;6.120;2023-10-19T06:57:49;15.20;99.90
12911;DHT22;6523;49.758;6.120;2023-10-19T07:00:17;15.20;99.90
12911;DHT22;6523;49.758;6.120;2023-10-19T07:02:47;15.20;99.90
12911;DHT22;6523;49.758;6.120;2023-10-19T07:05:13;15.20;99.90
12911;DHT22;6523;49.758;6.120;2023-10-19T07:07:44;15.20;99.90
12911;DHT22;6523;49.758;6.120;2023-10-19T07:10:11;15.30;99.90
12911;DHT22;6523;49.758;6.120;2023-10-19T07:12:43;15.30;99.90
12911;DHT22;6523;49.758;6.120;2023-10-19T07:15:09;15.40;99.90
12911;DHT22;6523;49.758;6.120;2023-10-19T07:17:40;15.50;99.90
12911;DHT22;6523;49.758;6.120;2023-10-19T07:20:06;15.50;99.90
12911;DHT22;6523;49.758;6.120;2023-10-19T07:22:33;15.70;99.90
12911;DHT22;6523;49.758;6.120;2023-10-19T07:24:59;15.70;99.90
12911;DHT22;6523;49.758;6.120;2023-10-19T07:27:25;15.70;99.90
12911;DHT22;6523;49.758;6.120;2023-10-19T07:29:53;15.70;99.90
12911;DHT22;6523;49.758;6.120;2023-10-19T07:32:19;15.70;99.90
12911;DHT22;6523;49.758;6.120;2023-10-19T07:34:45;15.70;99.90
12911;DHT22;6523;49.758;6.120;2023-10-19T07:37:13;15.80;99.90
12911;DHT22;6523;49.758;6.120;2023-10-19T07:39:45;15.80;99.90
12911;DHT22;6523;49.758;6.120;2023-10-19T07:42:11;15.90;99.90
12911;DHT22;6523;49.758;6.120;2023-10-19T07:44:37;15.90;99.90
12911;DHT22;6523;49.758;6.120;2023-10-19T07:47:03;15.80;99.90
12911;DHT22;6523;49.758;6.120;2023-10-19T07:49:28;15.90;99.90
12911;DHT22;6523;49.758;6.120;2023-10-19T07:51:54;15.90;99.90
12911;DHT22;6523;49.758;6.120;2023-10-19T07:54:20;16.00;99.90
12911;DHT22;6523;49.758;6.120;2023-10-19T07:56:46;16.10;99.90
12911;DHT22;6523;49.758;6.120;2023-10-19T07:59:12;16.20;99.90
12911;DHT22;6523;49.758;6.120;2023-10-19T08:01:38;16.30;99.90
12911;DHT22;6523;49.758;6.120;2023-10-19T08:04:04;16.30;99.90
12911;DHT22;6523;49.758;6.120;2023-10-19T08:06:30;16.30;99.90
12911;DHT22;6523;49.758;6.120;2023-10-19T08:08:56;16.40;99.90
12911;DHT22;6523;49.758;6.120;2023-10-19T08:11:23;16.40;99.90
12911;DHT22;6523;49.758;6.120;2023-10-19T08:13:49;16.30;99.90
12911;DHT22;6523;49.758;6.120;2023-10-19T08:16:15;16.20;99.90
12911;DHT22;6523;49.758;6.120;2023-10-19T08:18:42;16.20;99.90
12911;DHT22;6523;49.758;6.120;2023-10-19T08:21:08;16.20;99.90
12911;DHT22;6523;49.758;6.120;2023-10-19T08:23:33;16.10;99.90
12911;DHT22;6523;49.758;6.120;2023-10-19T08:25:59;16.10;99.90
12911;DHT22;6523;49.758;6.120;2023-10-19T08:28:25;16.00;99.90
12911;DHT22;6523;49.758;6.120;2023-10-19T08:30:51;15.90;99.90
12911;DHT22;6523;49.758;6.120;2023-10-19T08:33:24;16.00;99.90
12911;DHT22;6523;49.758;6.120;2023-10-19T08:35:54;15.90;99.90
12911;DHT22;6523;49.758;6.120;2023-10-19T08:38:20;15.90;99.90
12911;DHT22;6523;49.758;6.120;2023-10-19T08:40:47;15.80;99.90
12911;DHT22;6523;49.758;6.120;2023-10-19T08:43:13;15.80;99.90
12911;DHT22;6523;49.758;6.120;2023-10-19T08:45:39;15.70;99.90
12911;DHT22;6523;49.758;6.120;2023-10-19T08:48:05;15.70;99.90
12911;DHT22;6523;49.758;6.120;2023-10-19T08:50:32;15.70;99.90
12911;DHT22;6523;49.758;6.120;2023-10-19T08:53:07;15.70;99.90
12911;DHT22;6523;49.758;6.120;2023-10-19T08:55:34;15.70;99.90
12911;DHT22;6523;49.758;6.120;2023-10-19T08:58:03;15.70;99.90
12911;DHT22;6523;49.758;6.120;2023-10-19T09:00:48;15.70;99.90
12911;DHT22;6523;49.758;6.120;2023-10-19T09:03:16;15.70;99.90
12911;DHT22;6523;49.758;6.120;2023-10-19T09:05:42;15.80;99.90
12911;DHT22;6523;49.758;6.120;2023-10-19T09:08:11;15.80;99.90
12911;DHT22;6523;49.758;6.120;2023-10-19T09:10:40;15.80;99.90
12911;DHT22;6523;49.758;6.120;2023-10-19T09:13:06;15.90;99.90
12911;DHT22;6523;49.758;6.120;2023-10-19T09:15:36;16.00;99.90
12911;DHT22;6523;49.758;6.120;2023-10-19T09:18:15;16.10;99.90
12911;DHT22;6523;49.758;6.120;2023-10-19T09:20:43;16.10;99.90
12911;DHT22;6523;49.758;6.120;2023-10-19T09:23:24;16.20;99.90
12911;DHT22;6523;49.758;6.120;2023-10-19T09:25:51;16.40;99.90
12911;DHT22;6523;49.758;6.120;2023-10-19T09:28:20;16.40;99.90
12911;DHT22;6523;49.758;6.120;2023-10-19T09:30:47;16.60;99.90
12911;DHT22;6523;49.758;6.120;2023-10-19T09:33:14;16.80;99.90
12911;DHT22;6523;49.758;6.120;2023-10-19T09:35:45;16.80;99.90
12911;DHT22;6523;49.758;6.120;2023-10-19T09:38:14;16.70;99.90
12911;DHT22;6523;49.758;6.120;2023-10-19T09:40:40;16.90;99.90
12911;DHT22;6523;49.758;6.120;2023-10-19T09:43:11;16.90;99.90
12911;DHT22;6523;49.758;6.120;2023-10-19T09:45:41;16.90;99.90
12911;DHT22;6523;49.758;6.120;2023-10-19T09:48:09;16.80;99.90
12911;DHT22;6523;49.758;6.120;2023-10-19T09:50:43;16.80;99.90
12911;DHT22;6523;49.758;6.120;2023-10-19T09:53:10;16.90;99.90
12911;DHT22;6523;49.758;6.120;2023-10-19T09:55:38;16.90;99.90
12911;DHT22;6523;49.758;6.120;2023-10-19T09:58:18;16.90;99.90
12911;DHT22;6523;49.758;6.120;2023-10-19T10:00:46;16.70;99.90
12911;DHT22;6523;49.758;6.120;2023-10-19T10:03:49;16.70;99.90
12911;DHT22;6523;49.758;6.120;2023-10-19T10:06:26;16.60;99.90
12911;DHT22;6523;49.758;6.120;2023-10-19T10:08:52;16.50;99.90
12911;DHT22;6523;49.758;6.120;2023-10-19T10:11:19;16.40;99.90
12911;DHT22;6523;49.758;6.120;2023-10-19T10:13:45;16.40;99.90
12911;DHT22;6523;49.758;6.120;2023-10-19T10:16:14;16.40;99.90
12911;DHT22;6523;49.758;6.120;2023-10-19T10:18:41;16.40;99.90
12911;DHT22;6523;49.758;6.120;2023-10-19T10:21:11;16.50;99.90
12911;DHT22;6523;49.758;6.120;2023-10-19T10:23:47;16.60;99.90
12911;DHT22;6523;49.758;6.120;2023-10-19T10:26:14;16.70;99.90
12911;DHT22;6523;49.758;6.120;2023-10-19T10:28:41;16.80;99.90
12911;DHT22;6523;49.758;6.120;2023-10-19T10:31:20;16.90;99.90
12911;DHT22;6523;49.758;6.120;2023-10-19T10:33:51;16.90;99.90
12911;DHT22;6523;49.758;6.120;2023-10-19T10:36:19;17.10;99.90
12911;DHT22;6523;49.758;6.120;2023-10-19T10:38:50;16.90;99.90
12911;DHT22;6523;49.758;6.120;2023-10-19T10:41:20;16.90;99.90
12911;DHT22;6523;49.758;6.120;2023-10-19T10:46:19;16.80;99.90
12911;DHT22;6523;49.758;6.120;2023-10-19T10:48:45;16.80;99.90
12911;DHT22;6523;49.758;6.120;2023-10-19T10:51:25;16.70;99.90
12911;DHT22;6523;49.758;6.120;2023-10-19T10:53:53;16.70;99.90
12911;DHT22;6523;49.758;6.120;2023-10-19T10:56:22;16.60;99.90
12911;DHT22;6523;49.758;6.120;2023-10-19T10:58:48;16.50;99.90
12911;DHT22;6523;49.758;6.120;2023-10-19T11:01:15;16.50;99.90
12911;DHT22;6523;49.758;6.120;2023-10-19T11:03:41;16.50;99.90
12911;DHT22;6523;49.758;6.120;2023-10-19T11:06:09;16.40;99.90
12911;DHT22;6523;49.758;6.120;2023-10-19T11:08:35;16.40;99.90
12911;DHT22;6523;49.758;6.120;2023-10-19T11:11:07;16.50;99.90
12911;DHT22;6523;49.758;6.120;2023-10-19T11:13:36;16.50;99.90
12911;DHT22;6523;49.758;6.120;2023-10-19T11:16:04;16.40;99.90
12911;DHT22;6523;49.758;6.120;2023-10-19T11:18:33;16.40;99.90
12911;DHT22;6523;49.758;6.120;2023-10-19T11:21:00;16.40;99.90
12911;DHT22;6523;49.758;6.120;2023-10-19T11:23:46;16.30;99.90
12911;DHT22;6523;49.758;6.120;2023-10-19T11:26:13;16.30;99.90
12911;DHT22;6523;49.758;6.120;2023-10-19T11:28:40;16.30;99.90
12911;DHT22;6523;49.758;6.120;2023-10-19T11:31:15;16.30;99.90
12911;DHT22;6523;49.758;6.120;2023-10-19T11:33:47;16.30;99.90
12911;DHT22;6523;49.758;6.120;2023-10-19T11:36:17;16.20;99.90
12911;DHT22;6523;49.758;6.120;2023-10-19T11:38:44;16.20;99.90
12911;DHT22;6523;49.758;6.120;2023-10-19T11:41:14;16.20;99.90
12911;DHT22;6523;49.758;6.120;2023-10-19T11:43:42;16.20;99.90
12911;DHT22;6523;49.758;6.120;2023-10-19T11:46:09;16.20;99.90
12911;DHT22;6523;49.758;6.120;2023-10-19T11:48:35;16.20;99.90
12911;DHT22;6523;49.758;6.120;2023-10-19T11:51:02;16.20;99.90
12911;DHT22;6523;49.758;6.120;2023-10-19T11:53:31;16.20;99.90
12911;DHT22;6523;49.758;6.120;2023-10-19T11:55:59;16.20;99.90
12911;DHT22;6523;49.758;6.120;2023-10-19T11:58:26;16.10;99.90
12911;DHT22;6523;49.758;6.120;2023-10-19T12:00:51;16.10;99.90
12911;DHT22;6523;49.758;6.120;2023-10-19T12:03:17;16.20;99.90
12911;DHT22;6523;49.758;6.120;2023-10-19T12:05:44;16.10;99.90
12911;DHT22;6523;49.758;6.120;2023-10-19T12:08:09;16.30;99.90
12911;DHT22;6523;49.758;6.120;2023-10-19T12:10:36;16.30;99.90
12911;DHT22;6523;49.758;6.120;2023-10-19T12:13:02;16.40;99.90
12911;DHT22;6523;49.758;6.120;2023-10-19T12:15:30;16.30;99.90
12911;DHT22;6523;49.758;6.120;2023-10-19T12:17:55;16.30;99.90
12911;DHT22;6523;49.758;6.120;2023-10-19T12:20:21;16.30;99.90
12911;DHT22;6523;49.758;6.120;2023-10-19T12:22:47;16.30;99.90
12911;DHT22;6523;49.758;6.120;2023-10-19T12:25:13;16.30;99.90
12911;DHT22;6523;49.758;6.120;2023-10-19T12:27:40;16.20;99.90
12911;DHT22;6523;49.758;6.120;2023-10-19T12:30:06;16.20;99.90
12911;DHT22;6523;49.758;6.120;2023-10-19T12:32:42;16.30;99.90
12911;DHT22;6523;49.758;6.120;2023-10-19T12:35:08;16.20;99.90
12911;DHT22;6523;49.758;6.120;2023-10-19T12:37:37;16.30;99.90
12911;DHT22;6523;49.758;6.120;2023-10-19T12:40:14;16.30;99.90
12911;DHT22;6523;49.758;6.120;2023-10-19T12:42:53;16.60;99.90
12911;DHT22;6523;49.758;6.120;2023-10-19T12:45:25;16.80;99.90
12911;DHT22;6523;49.758;6.120;2023-10-19T12:47:51;17.10;99.90
12911;DHT22;6523;49.758;6.120;2023-10-19T12:50:21;17.30;99.90
12911;DHT22;6523;49.758;6.120;2023-10-19T12:52:50;17.50;99.90
12911;DHT22;6523;49.758;6.120;2023-10-19T12:55:17;17.20;99.90
12911;DHT22;6523;49.758;6.120;2023-10-19T12:57:43;17.40;99.90
12911;DHT22;6523;49.758;6.120;2023-10-19T13:00:09;17.50;99.90
12911;DHT22;6523;49.758;6.120;2023-10-19T13:02:54;17.50;99.90
12911;DHT22;6523;49.758;6.120;2023-10-19T13:05:32;17.50;99.90
12911;DHT22;6523;49.758;6.120;2023-10-19T13:07:58;17.60;99.90
12911;DHT22;6523;49.758;6.120;2023-10-19T13:10:31;17.50;99.90
12911;DHT22;6523;49.758;6.120;2023-10-19T13:13:02;17.70;99.90
12911;DHT22;6523;49.758;6.120;2023-10-19T13:15:32;18.00;99.90
12911;DHT22;6523;49.758;6.120;2023-10-19T13:18:00;18.10;99.90
12911;DHT22;6523;49.758;6.120;2023-10-19T13:20:27;18.10;99.90
12911;DHT22;6523;49.758;6.120;2023-10-19T13:22:53;18.20;99.90
12911;DHT22;6523;49.758;6.120;2023-10-19T13:25:19;18.30;99.90
12911;DHT22;6523;49.758;6.120;2023-10-19T13:27:54;18.10;99.90
12911;DHT22;6523;49.758;6.120;2023-10-19T13:30:19;18.20;99.90
12911;DHT22;6523;49.758;6.120;2023-10-19T13:32:45;18.10;99.90
12911;DHT22;6523;49.758;6.120;2023-10-19T13:35:11;18.00;99.90
12911;DHT22;6523;49.758;6.120;2023-10-19T13:37:36;18.00;99.90
12911;DHT22;6523;49.758;6.120;2023-10-19T13:40:03;18.10;99.90
12911;DHT22;6523;49.758;6.120;2023-10-19T13:42:32;18.10;99.90
12911;DHT22;6523;49.758;6.120;2023-10-19T13:44:57;18.40;99.90
12911;DHT22;6523;49.758;6.120;2023-10-19T13:47:23;18.50;99.90
12911;DHT22;6523;49.758;6.120;2023-10-19T13:49:48;18.20;99.90
12911;DHT22;6523;49.758;6.120;2023-10-19T13:52:14;18.10;99.90
12911;DHT22;6523;49.758;6.120;2023-10-19T13:54:41;18.00;99.90
12911;DHT22;6523;49.758;6.120;2023-10-19T13:57:06;17.90;99.90
12911;DHT22;6523;49.758;6.120;2023-10-19T13:59:32;17.90;99.90
12911;DHT22;6523;49.758;6.120;2023-10-19T14:02:00;18.20;99.90
12911;DHT22;6523;49.758;6.120;2023-10-19T14:04:26;18.30;99.90
12911;DHT22;6523;49.758;6.120;2023-10-19T14:06:51;18.20;99.90
12911;DHT22;6523;49.758;6.120;2023-10-19T14:09:18;18.10;99.90
12911;DHT22;6523;49.758;6.120;2023-10-19T14:11:44;18.00;99.90
12911;DHT22;6523;49.758;6.120;2023-10-19T14:14:12;17.90;99.90
12911;DHT22;6523;49.758;6.120;2023-10-19T14:16:38;18.00;99.90
12911;DHT22;6523;49.758;6.120;2023-10-19T14:19:04;18.20;99.90
12911;DHT22;6523;49.758;6.120;2023-10-19T14:21:30;18.40;99.90
12911;DHT22;6523;49.758;6.120;2023-10-19T14:23:56;18.90;99.90
12911;DHT22;6523;49.758;6.120;2023-10-19T14:26:22;19.20;99.90
12911;DHT22;6523;49.758;6.120;2023-10-19T14:28:47;18.80;99.90
12911;DHT22;6523;49.758;6.120;2023-10-19T14:31:13;18.70;99.90
12911;DHT22;6523;49.758;6.120;2023-10-19T14:33:39;18.70;99.90
12911;DHT22;6523;49.758;6.120;2023-10-19T14:36:05;19.10;99.90
12911;DHT22;6523;49.758;6.120;2023-10-19T14:38:31;19.50;99.90
12911;DHT22;6523;49.758;6.120;2023-10-19T14:40:56;19.80;99.90
12911;DHT22;6523;49.758;6.120;2023-10-19T14:43:23;19.80;99.90
12911;DHT22;6523;49.758;6.120;2023-10-19T14:45:51;19.90;99.90
12911;DHT22;6523;49.758;6.120;2023-10-19T14:48:16;19.70;99.90
12911;DHT22;6523;49.758;6.120;2023-10-19T14:50:45;19.70;99.90
12911;DHT22;6523;49.758;6.120;2023-10-19T14:53:10;19.80;99.90
12911;DHT22;6523;49.758;6.120;2023-10-19T14:55:37;19.30;99.90
12911;DHT22;6523;49.758;6.120;2023-10-19T14:58:03;18.70;99.90
12911;DHT22;6523;49.758;6.120;2023-10-19T15:00:31;18.60;99.90
12911;DHT22;6523;49.758;6.120;2023-10-19T15:03:03;18.30;99.90
12911;DHT22;6523;49.758;6.120;2023-10-19T15:05:35;18.30;99.90
12911;DHT22;6523;49.758;6.120;2023-10-19T15:08:02;18.00;99.90
12911;DHT22;6523;49.758;6.120;2023-10-19T15:10:30;17.70;99.90
12911;DHT22;6523;49.758;6.120;2023-10-19T15:12:57;17.60;99.90
12911;DHT22;6523;49.758;6.120;2023-10-19T15:15:25;17.60;99.90
12911;DHT22;6523;49.758;6.120;2023-10-19T15:17:51;17.60;99.90
12911;DHT22;6523;49.758;6.120;2023-10-19T15:20:19;17.70;99.90
12911;DHT22;6523;49.758;6.120;2023-10-19T15:22:45;17.80;99.90
12911;DHT22;6523;49.758;6.120;2023-10-19T15:25:12;18.40;99.90
12911;DHT22;6523;49.758;6.120;2023-10-19T15:27:39;18.40;99.90
12911;DHT22;6523;49.758;6.120;2023-10-19T15:30:07;18.40;99.90
12911;DHT22;6523;49.758;6.120;2023-10-19T15:32:33;18.60;99.90
12911;DHT22;6523;49.758;6.120;2023-10-19T15:34:59;18.40;99.90
12911;DHT22;6523;49.758;6.120;2023-10-19T15:37:24;18.40;99.90
12911;DHT22;6523;49.758;6.120;2023-10-19T15:39:50;18.40;99.90
12911;DHT22;6523;49.758;6.120;2023-10-19T15:42:16;18.50;99.90
12911;DHT22;6523;49.758;6.120;2023-10-19T15:44:43;18.00;99.90
12911;DHT22;6523;49.758;6.120;2023-10-19T15:47:09;17.80;99.90
12911;DHT22;6523;49.758;6.120;2023-10-19T15:49:56;17.80;99.90
12911;DHT22;6523;49.758;6.120;2023-10-19T15:52:26;17.70;99.90
12911;DHT22;6523;49.758;6.120;2023-10-19T15:54:57;17.50;99.90